Main page
METAR-TAF:

METAR-TAF

Airports :

Oxford Airport

Oxford, England

latitude: 51-50-13N, longitude: 1-19-12W, elevation: 82 m

Current weather observation

The report was made 34 minutes ago, at 07:20 UTC
Wind 2 kt from the Northwest
Temperature 5°C
Humidity 87%
Pressure 1031 hPa
Visibility 10 km or more
no clouds below 1500 m and no cumulonimbus

METAR: EGTK 240720Z 32002KT CAVOK 05/03 Q1031

Time: 07:54 (07:54 UTC)

Forecast

The report was made 54 minutes ago, at 07:00 UTC
Forecast valid from 24 at 07 UTC to 24 at 15 UTC
Wind 3 kt from variable directions
Visibility 10 km or more
Few clouds at a height of 4500 ft
Becoming
from 24 at 09 UTC to 24 at 12 UTC
Wind 10 kt from the West/Northwest

TAF: EGTK 240700Z 2407/2415 VRB03KT 9999 FEW045 BECMG 2409/2412 30010KT

Weather observations and forecasts of more than 4000 airports (METAR and TAF reports).

The available stations are represented by yellow and red dots on the map.

Hover mouse over dot to see the name of the station.

Then click to see weather observations and forecasts.

To change the map : click on the green buttons with a black cross to zoom in, on the green button with a dash to zoom out, or on the green arrows for adjacent maps.


METAR-TAF: